createdAt,value
2022-09-04T00:00:02.665Z,4.17
2022-09-04T00:02:48.361Z,4.40
2022-09-04T00:05:21.976Z,4.63
2022-09-04T00:07:59.013Z,4.43
2022-09-04T00:10:32.389Z,4.40
2022-09-04T00:13:09.671Z,4.87
2022-09-04T00:15:42.714Z,5.47
2022-09-04T00:18:14.504Z,5.30
2022-09-04T00:20:49.765Z,5.13
2022-09-04T00:23:22.963Z,6.77
2022-09-04T00:25:59.036Z,7.30
2022-09-04T00:28:35.991Z,7.27
2022-09-04T00:31:15.891Z,8.07
2022-09-04T00:33:51.455Z,7.00
2022-09-04T00:36:21.013Z,8.97
2022-09-04T00:38:54.881Z,8.23
2022-09-04T00:41:31.101Z,7.30
2022-09-04T00:44:33.042Z,8.17
2022-09-04T00:47:21.240Z,7.70
2022-09-04T00:50:13.089Z,6.50
2022-09-04T00:53:00.734Z,6.47
2022-09-04T00:55:45.565Z,6.30
2022-09-04T00:58:38.585Z,5.17
2022-09-04T01:01:08.302Z,5.60
2022-09-04T01:03:52.715Z,5.13
2022-09-04T01:06:30.841Z,5.50
2022-09-04T01:09:24.851Z,5.20
2022-09-04T01:12:07.744Z,4.83
2022-09-04T01:14:43.114Z,4.77
2022-09-04T01:17:19.514Z,4.27
2022-09-04T01:19:56.991Z,4.13
2022-09-04T01:22:48.115Z,4.40
2022-09-04T01:25:35.458Z,3.93
2022-09-04T01:28:10.790Z,4.17
2022-09-04T01:30:56.211Z,4.40
2022-09-04T01:33:31.489Z,6.97
2022-09-04T01:36:06.995Z,9.00
2022-09-04T01:38:41.628Z,10.07
2022-09-04T01:41:16.868Z,10.53
2022-09-04T01:43:46.384Z,11.83
2022-09-04T01:46:35.439Z,11.07
2022-09-04T01:49:14.177Z,11.20
2022-09-04T01:51:51.334Z,10.97
2022-09-04T01:54:31.218Z,11.67
2022-09-04T01:57:11.712Z,12.33
2022-09-04T01:59:53.862Z,10.70
2022-09-04T02:02:30.079Z,10.87
2022-09-04T02:05:08.578Z,11.03
2022-09-04T02:07:44.489Z,12.30
2022-09-04T02:10:19.935Z,14.00
2022-09-04T02:12:58.982Z,12.40
2022-09-04T02:15:39.595Z,11.10
2022-09-04T02:18:14.968Z,10.30
2022-09-04T02:20:54.123Z,10.47
2022-09-04T02:23:30.069Z,11.80
2022-09-04T02:26:04.669Z,13.03
2022-09-04T02:28:43.086Z,11.60
2022-09-04T02:31:21.685Z,10.77
2022-09-04T02:33:55.609Z,9.33
2022-09-04T02:36:30.227Z,9.37
2022-09-04T02:39:07.362Z,10.43
2022-09-04T02:41:42.971Z,10.27
2022-09-04T02:44:25.663Z,8.57
2022-09-04T02:47:07.928Z,9.27
2022-09-04T02:49:42.670Z,8.53
2022-09-04T02:52:26.860Z,8.33
2022-09-04T02:55:09.165Z,8.77
2022-09-04T02:57:50.376Z,8.53
2022-09-04T03:00:21.605Z,8.93
2022-09-04T03:02:57.255Z,8.33
2022-09-04T03:05:28.078Z,9.13
2022-09-04T03:08:01.694Z,8.43
2022-09-04T03:10:34.273Z,7.03
2022-09-04T03:13:08.346Z,7.67
2022-09-04T03:15:45.015Z,8.07
2022-09-04T03:18:21.589Z,8.40
2022-09-04T03:20:56.186Z,7.73
2022-09-04T03:23:33.729Z,9.47
2022-09-04T03:26:22.077Z,8.37
2022-09-04T03:29:00.159Z,6.23
2022-09-04T03:31:32.581Z,6.73
2022-09-04T03:34:13.831Z,7.10
2022-09-04T03:36:49.859Z,7.93
2022-09-04T03:39:24.767Z,7.23
2022-09-04T03:42:05.880Z,7.13
2022-09-04T03:44:43.709Z,8.03
2022-09-04T03:47:20.817Z,6.80
2022-09-04T03:49:59.110Z,7.87
2022-09-04T03:52:35.067Z,9.70
2022-09-04T03:55:25.360Z,6.50
2022-09-04T03:58:16.995Z,7.83
2022-09-04T04:00:57.218Z,7.47
2022-09-04T04:03:43.630Z,8.13
2022-09-04T04:06:23.359Z,7.83
2022-09-04T04:09:29.512Z,7.83
2022-09-04T04:12:29.892Z,10.33
2022-09-04T04:15:08.677Z,14.23
2022-09-04T04:17:53.003Z,20.80
2022-09-04T04:20:29.439Z,16.37
2022-09-04T04:23:18.083Z,15.43
2022-09-04T04:25:59.949Z,22.60
2022-09-04T04:28:47.965Z,15.17
2022-09-04T04:31:25.960Z,15.90
2022-09-04T04:33:58.811Z,12.30
2022-09-04T04:36:33.818Z,13.50
2022-09-04T04:39:13.977Z,14.43
2022-09-04T04:42:07.297Z,18.17
2022-09-04T04:45:10.562Z,13.40
2022-09-04T04:48:08.127Z,15.70
2022-09-04T04:50:43.997Z,13.23
2022-09-04T04:53:20.504Z,14.03
2022-09-04T04:55:56.771Z,13.43
2022-09-04T04:58:53.776Z,14.77
2022-09-04T05:01:35.483Z,14.70
2022-09-04T05:04:15.181Z,14.03
2022-09-04T05:06:50.431Z,11.70
2022-09-04T05:09:25.822Z,11.53
2022-09-04T05:12:06.438Z,12.90
2022-09-04T05:14:43.475Z,13.30
2022-09-04T05:17:24.311Z,12.27
2022-09-04T05:20:00.269Z,13.10
2022-09-04T05:22:36.392Z,14.40
2022-09-04T05:25:13.044Z,14.50
2022-09-04T05:27:53.728Z,13.60
2022-09-04T05:30:29.122Z,13.03
2022-09-04T05:33:05.133Z,12.90
2022-09-04T05:35:44.073Z,11.47
2022-09-04T05:38:17.442Z,13.20
2022-09-04T05:41:04.419Z,14.63
2022-09-04T05:43:51.613Z,11.70
2022-09-04T05:46:33.854Z,13.47
2022-09-04T05:49:09.043Z,13.80
2022-09-04T05:52:08.194Z,12.50
2022-09-04T05:54:58.816Z,13.67
2022-09-04T05:57:42.453Z,12.73
2022-09-04T06:00:16.181Z,13.20
2022-09-04T06:03:20.603Z,13.23
2022-09-04T06:06:04.904Z,14.83
2022-09-04T06:09:04.081Z,14.43
2022-09-04T06:11:45.916Z,14.10
2022-09-04T06:14:31.879Z,13.90
2022-09-04T06:17:16.510Z,12.90
2022-09-04T06:20:02.507Z,11.23
2022-09-04T06:22:50.164Z,13.37
2022-09-04T06:25:47.289Z,12.37
2022-09-04T06:29:06.919Z,14.00
2022-09-04T06:32:08.388Z,13.13
2022-09-04T06:35:02.557Z,13.33
2022-09-04T06:37:40.739Z,13.27
2022-09-04T06:40:20.626Z,12.83
2022-09-04T06:43:06.409Z,12.47
2022-09-04T06:45:46.418Z,12.60
2022-09-04T06:48:23.784Z,13.17
2022-09-04T06:51:08.125Z,14.33
2022-09-04T06:53:42.587Z,12.27
2022-09-04T06:56:29.801Z,11.17
2022-09-04T06:59:13.793Z,12.27
2022-09-04T07:01:52.542Z,12.07
2022-09-04T07:04:33.071Z,11.53
2022-09-04T07:07:12.035Z,12.13
2022-09-04T07:09:44.093Z,13.33
2022-09-04T07:12:33.582Z,12.90
2022-09-04T07:15:26.826Z,13.50
2022-09-04T07:18:02.131Z,13.07
2022-09-04T07:20:37.139Z,12.53
2022-09-04T07:23:28.767Z,13.87
2022-09-04T07:26:10.083Z,12.63
2022-09-04T07:28:58.408Z,11.83
2022-09-04T07:31:30.583Z,12.33
2022-09-04T07:34:07.753Z,13.33
2022-09-04T07:36:41.890Z,14.27
2022-09-04T07:39:20.759Z,13.70
2022-09-04T07:41:57.711Z,13.07
2022-09-04T07:44:35.212Z,11.67
2022-09-04T07:47:14.276Z,12.13
2022-09-04T07:49:52.669Z,12.97
2022-09-04T07:52:41.698Z,13.07
2022-09-04T07:55:27.818Z,11.87
2022-09-04T07:58:20.330Z,12.67
2022-09-04T08:01:03.507Z,13.07
2022-09-04T08:03:54.563Z,12.43
2022-09-04T08:06:28.768Z,12.03
2022-09-04T08:09:19.982Z,10.70
2022-09-04T08:12:02.056Z,11.00
2022-09-04T08:14:53.830Z,11.07
2022-09-04T08:17:43.147Z,12.33
2022-09-04T08:20:24.794Z,12.93
2022-09-04T08:23:05.854Z,9.80
2022-09-04T08:25:49.677Z,10.97
2022-09-04T08:28:34.824Z,11.73
2022-09-04T08:31:11.414Z,10.93
2022-09-04T08:34:00.052Z,11.40
2022-09-04T08:36:38.825Z,12.57
2022-09-04T08:39:10.740Z,11.77
2022-09-04T08:42:17.822Z,11.37
2022-09-04T08:45:22.250Z,10.67
2022-09-04T08:48:33.587Z,10.63
2022-09-04T08:51:40.286Z,9.93
2022-09-04T08:54:29.085Z,9.57
2022-09-04T08:57:23.610Z,8.37
2022-09-04T09:00:12.691Z,8.63
2022-09-04T09:03:13.905Z,8.07
2022-09-04T09:06:16.489Z,7.87
2022-09-04T09:09:28.532Z,7.43
2022-09-04T09:12:41.712Z,7.50
2022-09-04T09:15:50.231Z,7.13
2022-09-04T09:18:37.385Z,7.30
2022-09-04T09:21:16.919Z,7.43
2022-09-04T09:24:16.792Z,7.47
2022-09-04T09:27:05.753Z,7.27
2022-09-04T09:30:04.236Z,8.37
2022-09-04T09:33:05.811Z,7.67
2022-09-04T09:36:17.263Z,7.67
2022-09-04T09:39:14.257Z,7.63
2022-09-04T09:42:01.405Z,6.90
2022-09-04T09:45:09.439Z,5.30
2022-09-04T09:48:11.845Z,5.70
2022-09-04T09:51:04.518Z,6.40
2022-09-04T09:54:06.720Z,6.47
2022-09-04T09:57:17.446Z,6.53
2022-09-04T10:00:07.269Z,6.10
2022-09-04T10:03:10.246Z,6.40
2022-09-04T10:05:58.210Z,5.17
2022-09-04T10:08:43.312Z,6.10
2022-09-04T10:11:36.883Z,4.60
2022-09-04T10:14:25.155Z,4.33
2022-09-04T10:17:33.605Z,4.97
2022-09-04T10:20:42.957Z,4.23
2022-09-04T10:23:35.173Z,4.33
2022-09-04T10:26:21.238Z,4.90
2022-09-04T10:29:19.682Z,3.80
2022-09-04T10:32:06.585Z,3.00
2022-09-04T10:35:05.134Z,2.90
2022-09-04T10:37:49.235Z,2.60
2022-09-04T10:40:43.369Z,2.33
2022-09-04T10:43:47.820Z,1.90
2022-09-04T10:46:23.136Z,2.53
2022-09-04T10:49:16.008Z,1.90
2022-09-04T10:52:11.217Z,1.43
2022-09-04T10:55:18.351Z,2.30
2022-09-04T10:58:05.950Z,1.80
2022-09-04T11:00:40.411Z,1.40
2022-09-04T11:03:36.623Z,1.80
2022-09-04T11:06:49.552Z,1.70
2022-09-04T11:09:32.762Z,1.30
2022-09-04T11:12:26.324Z,1.00
2022-09-04T11:15:30.025Z,1.00
2022-09-04T11:18:27.036Z,1.07
2022-09-04T11:21:29.395Z,1.23
2022-09-04T11:24:41.696Z,1.20
2022-09-04T11:27:35.365Z,1.50
2022-09-04T11:30:12.206Z,1.70
2022-09-04T11:33:16.240Z,1.87
2022-09-04T11:36:20.156Z,2.00
2022-09-04T11:39:26.361Z,2.37
2022-09-04T11:42:20.495Z,2.30
2022-09-04T11:45:21.378Z,2.50
2022-09-04T11:48:14.381Z,2.60
2022-09-04T11:51:16.624Z,2.40
2022-09-04T11:54:19.178Z,2.50
2022-09-04T11:57:04.905Z,2.40
2022-09-04T11:59:56.992Z,2.60
2022-09-04T12:02:53.208Z,2.10
2022-09-04T12:05:40.421Z,2.00
2022-09-04T12:08:44.111Z,2.40
2022-09-04T12:11:38.279Z,2.30
2022-09-04T12:14:17.720Z,2.27
2022-09-04T12:17:22.257Z,2.17
2022-09-04T12:20:31.613Z,1.97
2022-09-04T12:23:18.524Z,2.27
2022-09-04T12:26:04.198Z,2.00
2022-09-04T12:29:00.375Z,1.90
2022-09-04T12:32:08.363Z,1.83
2022-09-04T12:34:55.863Z,1.90
2022-09-04T12:37:59.461Z,2.00
2022-09-04T12:40:44.734Z,2.03
2022-09-04T12:43:30.868Z,2.70
2022-09-04T12:46:14.409Z,2.10
2022-09-04T12:48:57.593Z,2.40
2022-09-04T12:51:30.255Z,2.30
2022-09-04T12:54:14.515Z,2.13
2022-09-04T12:56:49.623Z,2.10
2022-09-04T12:59:41.247Z,2.00
2022-09-04T13:02:26.159Z,2.00
2022-09-04T13:05:03.870Z,2.10
2022-09-04T13:07:50.463Z,2.30
2022-09-04T13:10:26.948Z,2.00
2022-09-04T13:13:05.927Z,2.40
2022-09-04T13:15:45.172Z,2.33
2022-09-04T13:18:31.678Z,2.10
2022-09-04T13:21:12.367Z,2.30
2022-09-04T13:23:57.289Z,2.00
2022-09-04T13:26:38.477Z,2.30
2022-09-04T13:29:17.239Z,2.10
2022-09-04T13:32:00.422Z,1.80
2022-09-04T13:34:43.701Z,1.90
2022-09-04T13:37:23.352Z,1.70
2022-09-04T13:40:04.216Z,1.90
2022-09-04T13:43:15.874Z,2.03
2022-09-04T13:45:46.762Z,1.97
2022-09-04T13:48:33.492Z,1.80
2022-09-04T13:51:13.856Z,1.57
2022-09-04T13:53:57.875Z,2.07
2022-09-04T13:56:32.420Z,1.80
2022-09-04T13:59:08.534Z,2.00
2022-09-04T14:01:46.158Z,1.90
2022-09-04T14:04:19.426Z,1.60
2022-09-04T14:06:49.771Z,1.70
2022-09-04T14:09:18.523Z,1.50
2022-09-04T14:12:04.904Z,1.60
2022-09-04T14:15:07.696Z,1.50
2022-09-04T14:17:43.606Z,1.50
2022-09-04T14:20:21.837Z,1.67
2022-09-04T14:23:01.855Z,1.50
2022-09-04T14:25:38.373Z,1.80
2022-09-04T14:28:17.940Z,1.60
2022-09-04T14:30:58.650Z,1.60
2022-09-04T14:33:36.089Z,1.90
2022-09-04T14:36:17.623Z,4.50
2022-09-04T14:39:01.884Z,2.33
2022-09-04T14:41:42.914Z,2.30
2022-09-04T14:44:25.004Z,1.53
2022-09-04T14:47:07.432Z,2.73
2022-09-04T14:49:47.116Z,1.93
2022-09-04T14:52:19.756Z,1.70
2022-09-04T14:54:54.045Z,1.70
2022-09-04T14:57:29.518Z,1.90
2022-09-04T15:00:06.092Z,1.93
2022-09-04T15:02:38.912Z,1.97
2022-09-04T15:05:18.000Z,1.70
2022-09-04T15:07:58.048Z,1.60
2022-09-04T15:10:31.627Z,1.30
2022-09-04T15:13:24.452Z,1.77
2022-09-04T15:15:56.581Z,1.40
2022-09-04T15:18:31.460Z,1.70
2022-09-04T15:21:05.092Z,1.70
2022-09-04T15:23:40.114Z,1.60
2022-09-04T15:26:19.988Z,1.50
2022-09-04T15:28:51.237Z,1.60
2022-09-04T15:31:29.148Z,1.50
2022-09-04T15:34:02.548Z,1.50
2022-09-04T15:36:31.676Z,1.50
2022-09-04T15:39:03.012Z,1.50
2022-09-04T15:41:42.015Z,1.33
2022-09-04T15:44:17.954Z,1.43
2022-09-04T15:46:51.282Z,1.60
2022-09-04T15:49:29.915Z,1.40
2022-09-04T15:52:10.442Z,1.60
2022-09-04T15:55:00.840Z,2.40
2022-09-04T15:57:43.753Z,2.00
2022-09-04T16:00:15.600Z,2.07
2022-09-04T16:02:53.492Z,2.70
2022-09-04T16:05:28.168Z,2.30
2022-09-04T16:08:05.280Z,2.10
2022-09-04T16:10:46.977Z,1.80
2022-09-04T16:13:35.242Z,2.00
2022-09-04T16:16:10.829Z,2.00
2022-09-04T16:18:50.272Z,2.40
2022-09-04T16:21:30.351Z,1.80
2022-09-04T16:24:08.054Z,1.60
2022-09-04T16:26:36.590Z,1.83
2022-09-04T16:29:09.716Z,1.50
2022-09-04T16:31:39.995Z,1.30
2022-09-04T16:34:22.178Z,1.17
2022-09-04T16:36:56.597Z,0.80
2022-09-04T16:39:30.112Z,0.60
2022-09-04T16:42:10.739Z,0.60
2022-09-04T16:44:45.421Z,0.80
2022-09-04T16:47:19.500Z,0.80
2022-09-04T16:49:56.417Z,0.80
2022-09-04T16:52:44.837Z,1.00
2022-09-04T16:55:17.353Z,0.83
2022-09-04T16:57:53.938Z,0.70
2022-09-04T17:00:24.117Z,0.73
2022-09-04T17:02:57.219Z,0.80
2022-09-04T17:05:35.193Z,0.90
2022-09-04T17:08:14.085Z,1.20
2022-09-04T17:10:46.710Z,2.00
2022-09-04T17:13:27.805Z,2.60
2022-09-04T17:16:03.579Z,2.70
2022-09-04T17:18:32.658Z,2.30
2022-09-04T17:25:40.634Z,2.60
2022-09-04T17:28:59.981Z,2.70
2022-09-04T17:29:08.245Z,3.00
2022-09-04T17:29:51.559Z,2.80
2022-09-04T17:35:52.597Z,2.27
2022-09-04T17:40:33.132Z,1.90
2022-09-04T17:40:41.635Z,2.10
2022-09-04T17:41:36.558Z,2.07
2022-09-04T17:44:29.279Z,1.80
2022-09-04T17:47:12.179Z,2.17
2022-09-04T17:49:47.286Z,2.63
2022-09-04T17:52:23.944Z,3.20
2022-09-04T17:54:52.358Z,2.50
2022-09-04T17:57:28.852Z,2.83
2022-09-04T18:00:05.055Z,2.80
2022-09-04T18:02:42.230Z,2.80
2022-09-04T18:05:19.779Z,2.70
2022-09-04T18:08:09.357Z,2.30
2022-09-04T18:10:52.015Z,2.50
2022-09-04T18:13:36.617Z,2.80
2022-09-04T18:16:16.237Z,3.07
2022-09-04T18:18:49.366Z,3.17
2022-09-04T18:21:23.995Z,7.77
2022-09-04T18:24:01.711Z,7.47
2022-09-04T18:26:41.196Z,6.60
2022-09-04T18:31:49.566Z,6.87
2022-09-04T18:37:25.319Z,10.70
2022-09-04T18:37:26.391Z,10.57
2022-09-04T18:38:41.808Z,8.43
2022-09-04T18:44:31.892Z,11.67
2022-09-04T18:50:22.759Z,12.37
2022-09-04T18:50:34.633Z,9.63
2022-09-04T18:50:46.125Z,10.10
2022-09-04T18:52:57.985Z,10.67
2022-09-04T18:55:32.115Z,8.90
2022-09-04T18:58:18.815Z,11.00
2022-09-04T19:00:53.584Z,10.57
2022-09-04T19:03:26.583Z,10.97
2022-09-04T19:05:59.404Z,11.83
2022-09-04T19:08:34.112Z,12.47
2022-09-04T19:11:17.455Z,11.63
2022-09-04T19:13:54.023Z,10.63
2022-09-04T19:16:30.020Z,11.40
2022-09-04T19:19:04.163Z,11.83
2022-09-04T19:21:43.108Z,13.40
2022-09-04T19:24:25.061Z,13.17
2022-09-04T19:27:27.367Z,14.30
2022-09-04T19:30:18.174Z,12.83
2022-09-04T19:33:10.262Z,13.67
2022-09-04T19:35:49.850Z,13.00
2022-09-04T19:43:51.283Z,13.57
2022-09-04T19:46:01.096Z,14.90
2022-09-04T19:46:11.160Z,14.60
2022-09-04T19:47:27.567Z,15.23
2022-09-04T19:53:21.986Z,15.57
2022-09-04T19:53:33.790Z,16.53
2022-09-04T19:56:02.402Z,15.70
2022-09-04T19:58:39.408Z,14.97
2022-09-04T20:01:18.147Z,16.00
2022-09-04T20:03:51.859Z,15.07
2022-09-04T20:06:25.549Z,14.67
2022-09-04T20:08:59.588Z,14.07
2022-09-04T20:11:36.035Z,15.43
2022-09-04T20:14:14.274Z,15.80
2022-09-04T20:16:54.339Z,15.40
2022-09-04T20:19:27.778Z,14.67
2022-09-04T20:22:01.199Z,17.10
2022-09-04T20:24:38.487Z,14.30
2022-09-04T20:27:15.562Z,15.03
2022-09-04T20:29:50.188Z,14.10
2022-09-04T20:32:27.606Z,14.97
2022-09-04T20:35:13.262Z,15.03
2022-09-04T20:37:46.587Z,17.30
2022-09-04T20:40:28.793Z,15.20
2022-09-04T20:43:17.001Z,15.03
2022-09-04T20:50:14.455Z,14.87
2022-09-04T20:52:52.242Z,11.97
2022-09-04T20:52:58.423Z,13.77
2022-09-04T20:55:08.022Z,14.13
2022-09-04T21:03:12.415Z,13.40
2022-09-04T21:03:23.361Z,13.00
2022-09-04T21:04:05.470Z,12.83
2022-09-04T21:06:39.839Z,13.70
2022-09-04T21:09:19.206Z,13.93
2022-09-04T21:11:51.523Z,13.10
2022-09-04T21:14:26.867Z,13.70
2022-09-04T21:17:27.510Z,14.40
2022-09-04T21:20:17.353Z,14.67
2022-09-04T21:23:05.655Z,14.67
2022-09-04T21:25:47.149Z,14.43
2022-09-04T21:28:52.070Z,15.13
2022-09-04T21:31:44.646Z,13.77
2022-09-04T21:34:31.835Z,14.30
2022-09-04T21:37:09.434Z,13.03
2022-09-04T21:40:01.079Z,15.00
2022-09-04T21:42:50.318Z,13.63
2022-09-04T21:45:36.192Z,14.50
2022-09-04T21:48:23.459Z,13.80
2022-09-04T21:51:26.411Z,13.23
2022-09-04T21:54:38.171Z,12.97
2022-09-04T22:02:31.711Z,11.87
2022-09-04T22:02:36.670Z,12.20
2022-09-04T22:04:02.334Z,12.60
2022-09-04T22:07:11.037Z,11.67
2022-09-04T22:13:27.468Z,11.00
2022-09-04T22:13:39.855Z,10.93
2022-09-04T22:15:58.990Z,11.37
2022-09-04T22:18:48.805Z,10.83
2022-09-04T22:21:27.118Z,9.67
2022-09-04T22:24:19.362Z,10.10
2022-09-04T22:27:19.718Z,10.37
2022-09-04T22:30:08.030Z,10.43
2022-09-04T22:33:08.364Z,9.67
2022-09-04T22:36:19.641Z,10.10
2022-09-04T22:39:07.166Z,9.27
2022-09-04T22:41:57.921Z,8.60
2022-09-04T22:44:44.471Z,7.60
2022-09-04T22:47:43.820Z,6.93
2022-09-04T22:50:49.748Z,6.43
2022-09-04T22:53:56.959Z,6.63
2022-09-04T22:56:37.786Z,6.57
2022-09-04T22:59:39.623Z,6.73
2022-09-04T23:02:48.138Z,7.13
2022-09-04T23:05:37.608Z,6.70
2022-09-04T23:13:47.520Z,6.60
2022-09-04T23:14:00.478Z,6.67
2022-09-04T23:14:53.229Z,6.23
2022-09-04T23:17:51.081Z,5.77
2022-09-04T23:26:38.133Z,5.13
2022-09-04T23:26:44.995Z,5.30
2022-09-04T23:27:08.691Z,5.73
2022-09-04T23:30:05.424Z,6.40
2022-09-04T23:33:27.070Z,6.10
2022-09-04T23:36:28.455Z,5.80
2022-09-04T23:39:29.919Z,6.30
2022-09-04T23:42:15.563Z,5.50
2022-09-04T23:45:10.394Z,5.50
2022-09-04T23:48:01.710Z,5.23
2022-09-04T23:50:35.958Z,5.10
2022-09-04T23:53:17.850Z,5.57
2022-09-04T23:56:01.977Z,5.33
2022-09-04T23:59:00.247Z,5.27
